createdAt,value
2022-08-04T00:02:12.495Z,64.80
2022-08-04T00:04:54.008Z,64.80
2022-08-04T00:07:48.451Z,64.80
2022-08-04T00:10:18.132Z,64.80
2022-08-04T00:12:50.150Z,64.70
2022-08-04T00:15:18.204Z,64.70
2022-08-04T00:17:48.508Z,64.70
2022-08-04T00:20:19.829Z,64.70
2022-08-04T00:22:48.669Z,64.70
2022-08-04T00:25:15.986Z,64.80
2022-08-04T00:27:44.139Z,64.80
2022-08-04T00:30:11.243Z,64.90
2022-08-04T00:32:41.252Z,64.90
2022-08-04T00:35:14.902Z,65.00
2022-08-04T00:37:43.897Z,65.00
2022-08-04T00:40:25.002Z,65.00
2022-08-04T00:43:16.506Z,65.00
2022-08-04T00:46:16.513Z,65.20
2022-08-04T00:49:03.061Z,65.30
2022-08-04T00:51:42.303Z,65.30
2022-08-04T00:54:41.280Z,65.30
2022-08-04T00:57:36.238Z,65.40
2022-08-04T01:00:09.922Z,65.40
2022-08-04T01:02:49.941Z,65.40
2022-08-04T01:05:29.078Z,65.50
2022-08-04T01:08:13.365Z,65.70
2022-08-04T01:11:07.794Z,65.80
2022-08-04T01:13:50.001Z,66.00
2022-08-04T01:16:18.254Z,66.20
2022-08-04T01:19:03.602Z,66.40
2022-08-04T01:21:30.693Z,66.60
2022-08-04T01:24:16.444Z,66.80
2022-08-04T01:26:57.673Z,67.00
2022-08-04T01:29:44.021Z,67.20
2022-08-04T01:32:21.008Z,67.40
2022-08-04T01:35:01.082Z,67.60
2022-08-04T01:38:18.345Z,67.80
2022-08-04T01:40:53.989Z,67.90
2022-08-04T01:43:21.734Z,67.90
2022-08-04T01:45:52.235Z,68.00
2022-08-04T01:48:25.204Z,68.00
2022-08-04T01:50:59.115Z,68.00
2022-08-04T01:53:32.849Z,68.00
2022-08-04T01:56:02.202Z,68.00
2022-08-04T01:58:33.659Z,67.90
2022-08-04T02:01:08.469Z,67.90
2022-08-04T02:04:19.909Z,67.80
2022-08-04T02:06:38.207Z,67.70
2022-08-04T02:09:29.966Z,67.70
2022-08-04T02:12:28.197Z,67.70
2022-08-04T02:15:24.986Z,67.60
2022-08-04T02:18:04.922Z,67.60
2022-08-04T02:20:44.817Z,67.70
2022-08-04T02:23:24.605Z,67.70
2022-08-04T02:26:01.295Z,67.80
2022-08-04T02:28:46.845Z,67.90
2022-08-04T02:31:31.515Z,67.90
2022-08-04T02:34:32.003Z,68.00
2022-08-04T02:37:00.342Z,68.10
2022-08-04T02:39:47.957Z,68.20
2022-08-04T02:42:17.352Z,68.30
2022-08-04T02:44:50.443Z,68.40
2022-08-04T02:47:24.664Z,68.50
2022-08-04T02:50:14.428Z,68.70
2022-08-04T02:52:58.333Z,68.80
2022-08-04T02:55:27.394Z,68.90
2022-08-04T02:57:56.453Z,69.00
2022-08-04T03:00:23.906Z,69.20
2022-08-04T03:03:23.065Z,69.40
2022-08-04T03:06:08.788Z,69.70
2022-08-04T03:09:11.328Z,70.00
2022-08-04T03:12:07.689Z,70.30
2022-08-04T03:14:40.310Z,70.70
2022-08-04T03:17:27.497Z,70.90
2022-08-04T03:20:09.540Z,71.10
2022-08-04T03:23:14.736Z,71.20
2022-08-04T03:26:16.084Z,71.30
2022-08-04T03:28:48.657Z,71.50
2022-08-04T03:31:49.317Z,71.70
2022-08-04T03:34:30.026Z,71.90
2022-08-04T03:37:18.394Z,71.90
2022-08-04T03:40:09.005Z,72.30
2022-08-04T03:42:37.829Z,72.50
2022-08-04T03:45:23.078Z,72.70
2022-08-04T03:48:12.322Z,72.90
2022-08-04T03:51:35.914Z,73.10
2022-08-04T03:54:28.010Z,73.20
2022-08-04T03:57:13.605Z,73.20
2022-08-04T03:59:55.289Z,73.30
2022-08-04T04:02:51.932Z,73.40
2022-08-04T04:06:02.216Z,73.50
2022-08-04T04:08:49.653Z,73.50
2022-08-04T04:11:54.169Z,73.70
2022-08-04T04:14:49.162Z,73.80
2022-08-04T04:17:43.393Z,73.90
2022-08-04T04:20:29.419Z,73.90
2022-08-04T04:23:24.613Z,73.90
2022-08-04T04:26:20.679Z,73.90
2022-08-04T04:29:20.011Z,73.90
2022-08-04T04:31:55.559Z,73.90
2022-08-04T04:34:59.332Z,73.90
2022-08-04T04:37:48.901Z,74.00
2022-08-04T04:40:45.397Z,74.00
2022-08-04T04:43:50.787Z,74.10
2022-08-04T04:46:35.162Z,74.10
2022-08-04T04:49:30.108Z,74.10
2022-08-04T04:52:08.553Z,74.20
2022-08-04T04:54:53.214Z,74.30
2022-08-04T04:57:53.242Z,74.30
2022-08-04T05:00:13.997Z,74.40
2022-08-04T05:03:27.525Z,74.60
2022-08-04T05:06:15.188Z,74.70
2022-08-04T05:09:07.160Z,74.90
2022-08-04T05:11:52.458Z,75.00
2022-08-04T05:14:41.106Z,75.10
2022-08-04T05:17:33.938Z,75.20
2022-08-04T05:20:23.784Z,75.30
2022-08-04T05:23:11.275Z,75.40
2022-08-04T05:25:59.339Z,75.50
2022-08-04T05:28:29.806Z,75.60
2022-08-04T05:31:10.606Z,75.80
2022-08-04T05:33:48.845Z,75.90
2022-08-04T05:36:39.953Z,76.10
2022-08-04T05:39:13.356Z,76.20
2022-08-04T05:41:44.740Z,76.20
2022-08-04T05:44:19.239Z,76.40
2022-08-04T05:46:53.740Z,76.60
2022-08-04T05:49:23.735Z,76.60
2022-08-04T05:51:52.709Z,76.60
2022-08-04T05:54:21.765Z,76.70
2022-08-04T05:56:51.084Z,76.80
2022-08-04T05:59:19.984Z,76.80
2022-08-04T06:01:55.171Z,76.90
2022-08-04T06:04:37.398Z,76.90
2022-08-04T06:07:05.094Z,76.90
2022-08-04T06:09:32.585Z,76.90
2022-08-04T06:12:04.882Z,76.90
2022-08-04T06:14:39.476Z,76.80
2022-08-04T06:18:32.624Z,76.80
2022-08-04T06:20:19.866Z,76.80
2022-08-04T06:22:49.786Z,76.80
2022-08-04T06:25:21.005Z,76.80
2022-08-04T06:27:49.875Z,76.80
2022-08-04T06:30:19.345Z,76.80
2022-08-04T06:32:48.719Z,76.80
2022-08-04T06:35:20.860Z,76.80
2022-08-04T06:37:48.793Z,76.90
2022-08-04T06:40:30.486Z,76.90
2022-08-04T06:43:00.762Z,76.90
2022-08-04T06:45:28.618Z,76.90
2022-08-04T06:48:08.628Z,77.00
2022-08-04T06:51:32.149Z,77.10
2022-08-04T06:53:41.338Z,77.20
2022-08-04T06:56:09.307Z,77.30
2022-08-04T06:58:37.871Z,77.40
2022-08-04T07:01:05.967Z,77.50
2022-08-04T07:03:33.369Z,77.70
2022-08-04T07:06:06.291Z,77.70
2022-08-04T07:08:41.905Z,77.60
2022-08-04T07:11:10.181Z,77.60
2022-08-04T07:13:39.785Z,77.60
2022-08-04T07:16:13.455Z,77.60
2022-08-04T07:18:40.458Z,77.60
2022-08-04T07:21:07.939Z,77.70
2022-08-04T07:23:35.118Z,77.80
2022-08-04T07:26:11.761Z,77.80
2022-08-04T07:28:41.987Z,77.80
2022-08-04T07:31:16.551Z,77.90
2022-08-04T07:34:11.615Z,77.90
2022-08-04T07:36:54.983Z,78.00
2022-08-04T07:39:27.645Z,78.00
2022-08-04T07:41:58.267Z,78.10
2022-08-04T07:44:25.595Z,78.20
2022-08-04T07:46:53.006Z,78.30
2022-08-04T07:49:55.156Z,78.50
2022-08-04T07:52:08.839Z,78.60
2022-08-04T07:54:36.279Z,78.70
2022-08-04T07:57:03.714Z,78.70
2022-08-04T07:59:31.345Z,78.80
2022-08-04T08:02:02.217Z,78.80
2022-08-04T08:04:30.400Z,78.80
2022-08-04T08:06:58.720Z,78.80
2022-08-04T08:09:26.027Z,78.80
2022-08-04T08:12:36.225Z,78.90
2022-08-04T08:14:44.117Z,79.10
2022-08-04T08:17:11.266Z,79.50
2022-08-04T08:19:38.535Z,79.70
2022-08-04T08:22:05.754Z,79.80
2022-08-04T08:24:36.477Z,80.00
2022-08-04T08:27:04.961Z,80.20
2022-08-04T08:29:34.742Z,80.40
2022-08-04T08:32:08.253Z,80.40
2022-08-04T08:34:36.181Z,80.40
2022-08-04T08:37:34.842Z,80.20
2022-08-04T08:40:17.686Z,79.90
2022-08-04T08:44:03.933Z,79.80
2022-08-04T08:46:13.779Z,79.80
2022-08-04T08:50:00.457Z,79.80
2022-08-04T08:52:55.029Z,79.80
2022-08-04T08:55:31.378Z,79.70
2022-08-04T08:58:01.134Z,79.70
2022-08-04T09:00:42.784Z,79.60
2022-08-04T09:03:28.295Z,79.30
2022-08-04T09:06:22.712Z,78.90
2022-08-04T09:09:03.231Z,78.80
2022-08-04T09:11:57.390Z,78.70
2022-08-04T09:14:26.224Z,78.70
2022-08-04T09:17:00.254Z,78.70
2022-08-04T09:19:38.945Z,78.80
2022-08-04T09:22:12.758Z,78.90
2022-08-04T09:24:48.751Z,78.60
2022-08-04T09:27:55.705Z,78.30
2022-08-04T09:30:47.212Z,78.30
2022-08-04T09:33:44.774Z,78.30
2022-08-04T09:36:25.759Z,78.20
2022-08-04T09:39:27.657Z,78.00
2022-08-04T09:42:01.779Z,77.60
2022-08-04T09:44:50.771Z,77.00
2022-08-04T09:47:54.518Z,76.20
2022-08-04T09:50:37.643Z,75.30
2022-08-04T09:53:43.577Z,75.00
2022-08-04T09:56:39.803Z,74.10
2022-08-04T09:59:22.297Z,73.50
2022-08-04T10:01:59.726Z,73.20
2022-08-04T10:04:31.171Z,73.20
2022-08-04T10:07:20.030Z,72.80
2022-08-04T10:10:23.874Z,72.40
2022-08-04T10:13:09.285Z,71.80
2022-08-04T10:15:49.563Z,71.40
2022-08-04T10:18:22.199Z,71.00
2022-08-04T10:21:06.812Z,69.90
2022-08-04T10:23:56.378Z,69.80
2022-08-04T10:26:42.586Z,69.60
2022-08-04T10:29:18.393Z,69.00
2022-08-04T10:31:55.922Z,68.70
2022-08-04T10:34:27.772Z,68.60
2022-08-04T10:37:01.509Z,67.70
2022-08-04T10:40:06.938Z,67.30
2022-08-04T10:42:38.802Z,67.30
2022-08-04T10:45:19.223Z,67.60
2022-08-04T10:48:06.043Z,66.50
2022-08-04T10:50:40.368Z,65.90
2022-08-04T10:53:17.398Z,65.90
2022-08-04T10:56:06.696Z,65.90
2022-08-04T10:58:48.082Z,65.60
2022-08-04T11:02:03.041Z,64.90
2022-08-04T11:04:48.819Z,64.80
2022-08-04T11:07:17.756Z,64.50
2022-08-04T11:09:45.808Z,64.30
2022-08-04T11:12:26.819Z,64.20
2022-08-04T11:14:59.840Z,64.00
2022-08-04T11:17:33.704Z,63.30
2022-08-04T11:20:38.368Z,63.00
2022-08-04T11:23:13.522Z,62.60
2022-08-04T11:26:18.573Z,62.30
2022-08-04T11:29:04.036Z,62.00
2022-08-04T11:31:35.462Z,61.50
2022-08-04T11:34:20.897Z,61.50
2022-08-04T11:37:00.581Z,61.10
2022-08-04T11:39:43.728Z,60.80
2022-08-04T11:42:10.749Z,60.70
2022-08-04T11:45:08.091Z,60.80
2022-08-04T11:47:48.385Z,60.70
2022-08-04T11:50:29.291Z,60.40
2022-08-04T11:52:58.246Z,60.40
2022-08-04T11:55:28.314Z,60.40
2022-08-04T11:57:55.909Z,59.80
2022-08-04T12:00:25.166Z,59.60
2022-08-04T12:03:29.596Z,59.60
2022-08-04T12:06:00.932Z,59.50
2022-08-04T12:08:30.685Z,59.20
2022-08-04T12:11:28.211Z,59.20
2022-08-04T12:14:13.039Z,58.90
2022-08-04T12:16:52.051Z,57.50
2022-08-04T12:19:31.179Z,57.60
2022-08-04T12:22:20.390Z,57.80
2022-08-04T12:24:59.900Z,57.70
2022-08-04T12:27:52.014Z,57.40
2022-08-04T12:30:59.925Z,57.20
2022-08-04T12:33:23.907Z,57.20
2022-08-04T12:36:21.289Z,57.20
2022-08-04T12:39:14.747Z,57.20
2022-08-04T12:42:04.811Z,57.20
2022-08-04T12:44:37.793Z,57.10
2022-08-04T12:47:26.835Z,57.80
2022-08-04T12:50:02.739Z,58.20
2022-08-04T12:53:01.746Z,58.60
2022-08-04T12:55:33.541Z,58.70
2022-08-04T12:58:04.006Z,58.70
2022-08-04T13:00:43.760Z,58.60
2022-08-04T13:03:14.299Z,57.80
2022-08-04T13:05:42.902Z,58.10
2022-08-04T13:08:15.493Z,58.40
2022-08-04T13:10:46.922Z,58.60
2022-08-04T13:13:24.493Z,58.40
2022-08-04T13:15:57.595Z,58.60
2022-08-04T13:18:30.439Z,58.30
2022-08-04T13:21:22.880Z,58.40
2022-08-04T13:24:22.686Z,58.20
2022-08-04T13:27:03.503Z,57.40
2022-08-04T13:29:59.005Z,56.50
2022-08-04T13:32:26.894Z,56.40
2022-08-04T13:34:55.789Z,56.10
2022-08-04T13:37:30.631Z,55.30
2022-08-04T13:39:59.606Z,56.00
2022-08-04T13:42:27.247Z,56.30
2022-08-04T13:44:58.307Z,56.20
2022-08-04T13:47:38.309Z,56.30
2022-08-04T13:50:30.258Z,56.20
2022-08-04T13:53:00.128Z,56.00
2022-08-04T13:55:31.169Z,55.70
2022-08-04T13:58:21.535Z,55.00
2022-08-04T14:01:00.450Z,55.00
2022-08-04T14:03:53.850Z,55.00
2022-08-04T14:06:25.408Z,54.70
2022-08-04T14:08:55.178Z,54.70
2022-08-04T14:12:06.143Z,54.60
2022-08-04T14:14:31.953Z,54.30
2022-08-04T14:17:06.260Z,54.20
2022-08-04T14:19:55.044Z,53.80
2022-08-04T14:22:34.763Z,53.40
2022-08-04T14:25:17.912Z,52.90
2022-08-04T14:27:49.564Z,52.60
2022-08-04T14:30:35.657Z,52.40
2022-08-04T14:34:02.006Z,52.20
2022-08-04T14:36:01.655Z,52.30
2022-08-04T14:38:51.892Z,52.40
2022-08-04T14:41:26.804Z,52.40
2022-08-04T14:44:03.041Z,52.50
2022-08-04T14:46:36.366Z,52.40
2022-08-04T14:49:10.525Z,52.20
2022-08-04T14:51:55.053Z,51.50
2022-08-04T14:54:30.546Z,51.50
2022-08-04T14:57:08.018Z,51.50
2022-08-04T15:00:00.499Z,51.80
2022-08-04T15:02:29.535Z,51.90
2022-08-04T15:04:57.425Z,51.60
2022-08-04T15:07:24.837Z,51.70
2022-08-04T15:09:52.268Z,52.00
2022-08-04T15:12:19.441Z,52.10
2022-08-04T15:14:46.357Z,51.80
2022-08-04T15:17:29.438Z,51.80
2022-08-04T15:19:57.346Z,51.80
2022-08-04T15:22:24.563Z,52.20
2022-08-04T15:24:52.217Z,52.30
2022-08-04T15:27:26.967Z,52.50
2022-08-04T15:29:59.524Z,52.40
2022-08-04T15:32:34.238Z,52.50
2022-08-04T15:35:06.846Z,52.60
2022-08-04T15:38:08.522Z,52.60
2022-08-04T15:40:51.009Z,52.50
2022-08-04T15:43:39.580Z,52.60
2022-08-04T15:46:44.315Z,52.70
2022-08-04T15:48:53.657Z,52.70
2022-08-04T15:51:32.037Z,52.60
2022-08-04T15:54:02.502Z,52.30
2022-08-04T15:56:31.125Z,52.00
2022-08-04T15:58:58.817Z,51.50
2022-08-04T16:01:27.752Z,51.40
2022-08-04T16:04:00.028Z,51.10
2022-08-04T16:06:29.157Z,50.80
2022-08-04T16:09:01.912Z,50.80
2022-08-04T16:11:40.060Z,50.90
2022-08-04T16:14:11.038Z,50.60
2022-08-04T16:16:47.885Z,50.20
2022-08-04T16:19:41.851Z,50.20
2022-08-04T16:22:31.379Z,50.20
2022-08-04T16:24:58.446Z,50.30
2022-08-04T16:27:45.086Z,50.30
2022-08-04T16:30:15.053Z,50.40
2022-08-04T16:32:47.460Z,50.40
2022-08-04T16:35:28.662Z,50.90
2022-08-04T16:38:13.322Z,51.70
2022-08-04T16:40:44.357Z,52.10
2022-08-04T16:43:17.152Z,52.30
2022-08-04T16:46:01.144Z,51.50
2022-08-04T16:48:33.568Z,51.20
2022-08-04T16:51:05.918Z,51.20
2022-08-04T16:53:53.106Z,51.30
2022-08-04T16:56:30.327Z,51.40
2022-08-04T16:59:07.338Z,51.50
2022-08-04T17:01:35.161Z,51.60
2022-08-04T17:04:07.066Z,51.50
2022-08-04T17:06:40.837Z,51.40
2022-08-04T17:09:17.228Z,51.20
2022-08-04T17:11:46.441Z,50.90
2022-08-04T17:14:13.930Z,50.90
2022-08-04T17:16:42.889Z,51.10
2022-08-04T17:19:24.218Z,51.20
2022-08-04T17:22:00.409Z,51.10
2022-08-04T17:24:30.397Z,51.20
2022-08-04T17:26:58.972Z,51.20
2022-08-04T17:29:43.192Z,51.20
2022-08-04T17:32:16.872Z,51.30
2022-08-04T17:34:54.306Z,51.30
2022-08-04T17:37:39.102Z,51.50
2022-08-04T17:40:14.273Z,51.70
2022-08-04T17:42:45.699Z,51.80
2022-08-04T17:45:50.161Z,52.00
2022-08-04T17:48:24.124Z,52.30
2022-08-04T17:50:52.289Z,52.60
2022-08-04T17:54:01.328Z,53.00
2022-08-04T17:56:59.463Z,53.30
2022-08-04T18:02:32.346Z,53.20
2022-08-04T18:05:07.810Z,53.00
2022-08-04T18:08:39.534Z,53.10
2022-08-04T18:10:54.184Z,53.30
2022-08-04T18:13:27.234Z,53.50
2022-08-04T18:16:02.386Z,53.60
2022-08-04T18:18:30.023Z,53.70
2022-08-04T18:20:59.800Z,53.80
2022-08-04T18:23:31.680Z,53.90
2022-08-04T18:26:01.839Z,54.00
2022-08-04T18:28:31.314Z,54.10
2022-08-04T18:31:00.785Z,54.10
2022-08-04T18:33:40.841Z,54.10
2022-08-04T18:36:34.100Z,53.90
2022-08-04T18:39:13.305Z,53.80
2022-08-04T18:42:01.624Z,53.80
2022-08-04T18:44:31.708Z,53.70
2022-08-04T18:47:19.358Z,53.80
2022-08-04T18:50:59.987Z,54.00
2022-08-04T18:52:33.848Z,54.00
2022-08-04T18:55:01.759Z,53.90
2022-08-04T18:57:59.060Z,54.00
2022-08-04T19:00:20.173Z,54.10
2022-08-04T19:02:54.941Z,54.10
2022-08-04T19:05:24.298Z,54.00
2022-08-04T19:08:33.494Z,54.30
2022-08-04T19:10:54.202Z,54.40
2022-08-04T19:13:27.569Z,54.50
2022-08-04T19:15:54.776Z,54.60
2022-08-04T19:18:26.440Z,54.70
2022-08-04T19:20:55.395Z,54.80
2022-08-04T19:24:28.760Z,54.70
2022-08-04T19:26:20.706Z,54.90
2022-08-04T19:28:55.353Z,54.80
2022-08-04T19:31:28.420Z,54.90
2022-08-04T19:36:49.092Z,55.30
2022-08-04T19:39:16.399Z,55.50
2022-08-04T19:42:05.661Z,55.60
2022-08-04T19:44:30.609Z,56.00
2022-08-04T19:47:00.815Z,56.20
2022-08-04T19:50:04.408Z,56.40
2022-08-04T19:52:33.212Z,56.60
2022-08-04T19:55:09.840Z,56.80
2022-08-04T19:57:46.564Z,56.90
2022-08-04T20:00:33.002Z,56.90
2022-08-04T20:03:00.644Z,57.10
2022-08-04T20:05:52.531Z,57.30
2022-08-04T20:08:15.720Z,57.40
2022-08-04T20:10:51.636Z,57.60
2022-08-04T20:13:20.846Z,57.80
2022-08-04T20:15:55.555Z,58.00
2022-08-04T20:18:36.714Z,58.00
2022-08-04T20:21:19.094Z,58.10
2022-08-04T20:23:52.409Z,58.20
2022-08-04T20:26:19.798Z,58.30
2022-08-04T20:28:51.992Z,58.30
2022-08-04T20:31:20.585Z,58.40
2022-08-04T20:33:53.485Z,58.50
2022-08-04T20:36:20.826Z,58.60
2022-08-04T20:38:52.624Z,58.70
2022-08-04T20:41:21.727Z,58.80
2022-08-04T20:43:50.106Z,59.00
2022-08-04T20:46:29.133Z,59.10
2022-08-04T20:48:57.558Z,59.10
2022-08-04T20:51:32.216Z,59.30
2022-08-04T20:54:02.143Z,59.40
2022-08-04T20:56:30.765Z,59.60
2022-08-04T20:59:00.060Z,59.80
2022-08-04T21:01:29.820Z,60.00
2022-08-04T21:04:27.544Z,60.10
2022-08-04T21:07:07.423Z,60.20
2022-08-04T21:09:38.131Z,60.40
2022-08-04T21:15:13.361Z,60.60
2022-08-04T21:17:57.011Z,60.70
2022-08-04T21:20:27.663Z,60.80
2022-08-04T21:22:55.555Z,60.80
2022-08-04T21:25:26.774Z,61.00
2022-08-04T21:27:53.747Z,61.10
2022-08-04T21:30:25.445Z,61.20
2022-08-04T21:32:55.377Z,61.30
2022-08-04T21:35:37.034Z,61.40
2022-08-04T21:38:16.624Z,61.50
2022-08-04T21:40:55.000Z,61.60
2022-08-04T21:43:27.364Z,61.70
2022-08-04T21:45:56.973Z,61.80
2022-08-04T21:48:31.863Z,62.00
2022-08-04T21:51:59.312Z,62.10
2022-08-04T21:54:08.757Z,62.30
2022-08-04T21:56:36.023Z,62.40
2022-08-04T21:59:11.009Z,62.60
2022-08-04T22:01:51.630Z,62.60
2022-08-04T22:04:19.929Z,62.70
2022-08-04T22:06:51.662Z,62.80
2022-08-04T22:09:21.910Z,62.90
2022-08-04T22:11:51.114Z,63.00
2022-08-04T22:14:27.632Z,63.10
2022-08-04T22:17:02.810Z,63.10
2022-08-04T22:19:49.716Z,63.10
2022-08-04T22:22:25.883Z,63.20
2022-08-04T22:25:00.177Z,63.30
2022-08-04T22:27:47.362Z,63.30
2022-08-04T22:30:17.598Z,63.40
2022-08-04T22:32:47.975Z,63.40
2022-08-04T22:35:43.408Z,63.50
2022-08-04T22:38:06.637Z,63.50
2022-08-04T22:40:38.510Z,63.50
2022-08-04T22:43:31.424Z,63.70
2022-08-04T22:45:52.650Z,63.90
2022-08-04T22:48:20.401Z,64.00
2022-08-04T22:50:47.627Z,64.20
2022-08-04T22:53:17.921Z,64.30
2022-08-04T22:56:06.384Z,64.50
2022-08-04T22:58:32.534Z,64.60
2022-08-04T23:00:59.728Z,64.70
2022-08-04T23:03:37.302Z,64.90
2022-08-04T23:06:10.680Z,65.10
2022-08-04T23:08:43.086Z,65.30
2022-08-04T23:11:14.707Z,65.50
2022-08-04T23:13:41.825Z,65.70
2022-08-04T23:16:10.418Z,65.90
2022-08-04T23:18:40.062Z,66.00
2022-08-04T23:21:10.449Z,66.20
2022-08-04T23:23:45.406Z,66.40
2022-08-04T23:26:15.858Z,66.60
2022-08-04T23:28:46.037Z,66.70
2022-08-04T23:31:14.746Z,66.80
2022-08-04T23:33:51.388Z,66.90
2022-08-04T23:36:30.108Z,66.90
2022-08-04T23:39:04.001Z,66.90
2022-08-04T23:41:53.987Z,67.00
2022-08-04T23:44:25.901Z,67.00
2022-08-04T23:47:02.022Z,67.10
2022-08-04T23:49:43.905Z,67.10
2022-08-04T23:52:23.271Z,67.10
2022-08-04T23:55:01.070Z,67.10
2022-08-04T23:58:05.233Z,67.20
